Flight Track Log - Related Links

Times and Time Zones

All times are in EDT time to prevent confusion due to time zone crossing. See the FLG3862 flight status page for this flight to view local times or setup timezone preferences in your user account.

Time Position Orientation Groundspeed Altitude Reporting Facility
EDT Latitude Longitude Course Direction KTS MPH feet Rate Location/Type
Wed 10:42:27 AM 42.2358 -83.3314 90° East 158 182 1,500  Level FAA TRACON SMA TRACON (SMA)
Wed 10:42:47 AM 42.2500 -83.3203 30° Northeast 167 192 2,400 2,488 Climbing FAA TRACON SMA TRACON (SMA)
Wed 10:43:08 AM 42.2664 -83.3072 31° Northeast 190 219 3,200 2,049 Climbing FAA TRACON SMA TRACON (SMA)
Wed 10:43:28 AM 42.2803 -83.2967 29° Northeast 203 234 3,800 1,846 Climbing FAA TRACON SMA TRACON (SMA)
Wed 10:43:47 AM 42.2947 -83.2847 31° Northeast 213 245 4,400 1,846 Climbing FAA TRACON SMA TRACON (SMA)
Wed 10:44:07 AM 42.3144 -83.2661 35° Northeast 233 268 5,000 1,650 Climbing FAA TRACON SMA TRACON (SMA)
Wed 10:44:27 AM 42.3275 -83.2375 58° Northeast 259 298 5,500 1,500 Climbing FAA TRACON SMA TRACON (SMA)
Wed 10:44:47 AM 42.3303 -83.2081 83° East 280 322 6,000 2,400 Climbing FAA TRACON SMA TRACON (SMA)
Wed 10:45:00 AM 42.3193 -82.7239 82° East  Level FlightAware Approximate
Wed 10:45:07 AM 42.3286 -83.1703 93° East 269 310 7,100  Level FAA TRACON SMA TRACON (SMA)
Wed 10:45:28 AM 42.3256 -83.1383 97° East 278 320 7,900 2,195 Climbing FAA TRACON SMA TRACON (SMA)
Wed 10:45:48 AM 42.3211 -83.1008 99° East 294 338 8,600 2,250 Climbing FAA TRACON SMA TRACON (SMA)
Wed 10:46:00 AM 42.3381 -82.5643 71° East  Level FlightAware Approximate
Wed 10:46:08 AM 42.3164 -83.0614 99° East 302 348 9,400  Level FAA TRACON SMA TRACON (SMA)
Wed 10:46:28 AM 42.3122 -83.0258 99° East 308 354 9,600 900 Climbing FAA TRACON SMA TRACON (SMA)
Wed 10:46:48 AM 42.3075 -82.9856 99° East 316 364 10,000 615 Climbing FAA TRACON SMA TRACON (SMA)
Wed 10:47:00 AM 42.3667 -82.4119 90° East  Level FlightAware Approximate
Wed 10:47:07 AM 42.3028 -82.9483 100° East 322 371 10,000  Level FAA TRACON SMA TRACON (SMA)
Wed 10:47:27 AM 42.2983 -82.9008 97° East 354 407 10,600 2,100 Climbing FAA TRACON SMA TRACON (SMA)
Wed 10:47:47 AM 42.3014 -82.8608 84° East 354 407 11,400 2,250 Climbing FAA TRACON SMA TRACON (SMA)
Wed 10:48:07 AM 42.3069 -82.8214 79° East 348 400 12,100 2,250 Climbing FAA TRACON SMA TRACON (SMA)
Wed 10:48:27 AM 42.3158 -82.7719 76° East 352 405 12,900 1,950 Climbing FAA TRACON SMA TRACON (SMA)
Wed 10:48:47 AM 42.3219 -82.7314 78° East 355 409 13,400 1,500 Climbing FAA TRACON SMA TRACON (SMA)
Wed 10:49:07 AM 42.3292 -82.6906 77° East 363 418 13,900 1,800 Climbing FAA TRACON SMA TRACON (SMA)
Wed 10:49:27 AM 42.3378 -82.6381 77° East 370 426 14,600 1,650 Climbing FAA TRACON SMA TRACON (SMA)
Wed 10:49:47 AM 42.3447 -82.5956 78° East 373 429 15,000 1,650 Climbing FAA TRACON SMA TRACON (SMA)
Wed 10:50:07 AM 42.3539 -82.5417 77° East 378 435 15,700 1,756 Climbing FAA TRACON SMA TRACON (SMA)
Wed 10:50:28 AM 42.3619 -82.4983 76° East 383 441 16,200 1,535 Climbing FAA TRACON SMA TRACON (SMA)
Wed 10:50:50 AM 42.3661 -82.4408 84° East 367 422 16,800 1,244 Climbing Cleveland Center
Wed 10:51:50 AM 42.3600 -82.2944 93° East 378 435 17,900 1,250 Climbing Cleveland Center
Wed 10:52:50 AM 42.3539 -82.1397 93° East 384 442 19,300 1,200 Climbing Cleveland Center
Wed 10:53:50 AM 42.3475 -81.9850 93° East 412 474 20,300 1,000 Climbing Cleveland Center
Wed 10:54:50 AM 42.3411 -81.8164 93° East 427 491 21,300 1,050 Climbing Cleveland Center
Wed 10:55:50 AM 42.3322 -81.6506 94° East 438 504 22,400 1,050 Climbing Cleveland Center
Wed 10:56:50 AM 42.3253 -81.4819 93° East 443 510 23,400 950 Climbing Cleveland Center
Wed 10:57:50 AM 42.3161 -81.3103 94° East 448 516 24,300 800 Climbing Cleveland Center
Wed 10:58:50 AM 42.3086 -81.1558 94° East 458 527 25,000 800 Climbing Cleveland Center
Wed 10:59:50 AM 42.3011 -80.9817 93° East 463 533 25,900 750 Climbing Cleveland Center
Wed 11:00:50 AM 42.2911 -80.8050 94° East 463 533 26,500 600 Climbing Cleveland Center
Wed 11:01:50 AM 42.2808 -80.6169 94° East 478 550 27,100 600 Climbing Cleveland Center
Wed 11:02:50 AM 42.2706 -80.4372 94° East 483 556 27,700 600 Climbing Cleveland Center
Wed 11:03:50 AM 42.2597 -80.2381 94° East 483 556 28,300 650 Climbing Cleveland Center
Wed 11:04:50 AM 42.2486 -80.0531 95° East 483 556 29,000 600 Climbing Cleveland Center
Wed 11:05:50 AM 42.2392 -79.8906 94° East 483 556 29,500 550 Climbing Cleveland Center
Wed 11:06:50 AM 42.2275 -79.7028 95° East 483 556 30,100 550 Climbing Cleveland Center
Wed 11:07:50 AM 42.2136 -79.5178 96° East 488 562 30,600 450 Climbing Cleveland Center
Wed 11:08:50 AM 42.2033 -79.3331 94° East 488 562 31,000 200 Climbing Cleveland Center
Wed 11:09:50 AM 42.1908 -79.1483 95° East 493 567 31,000  Level Cleveland Center
Wed 11:10:50 AM 42.2386 -78.9789 69° East 479 551 31,000  Level Cleveland Center
Wed 11:11:50 AM 42.2986 -78.8147 64° Northeast 479 551 31,000  Level Cleveland Center
Wed 11:12:50 AM 42.3564 -78.6472 65° Northeast 479 551 31,000  Level Cleveland Center
Wed 11:13:50 AM 42.4139 -78.4794 65° Northeast 484 557 31,000  Level Cleveland Center
Wed 11:14:50 AM 42.4692 -78.3144 66° East 484 557 31,000  Level Cleveland Center
Wed 11:15:50 AM 42.5242 -78.1519 65° Northeast 484 557 31,000  Level Cleveland Center
Wed 11:16:50 AM 42.5811 -77.9861 65° Northeast 484 557 31,000  Level Cleveland Center
Wed 11:17:50 AM 42.6358 -77.8258 65° Northeast 474 545 31,000  Level Cleveland Center
Wed 11:18:50 AM 42.6917 -77.6425 67° East 474 545 31,000  Level Cleveland Center
Wed 11:20:49 AM 42.8019 -77.3225 65° Northeast 461 531 31,000  Level Boston Center
Wed 11:21:50 AM 42.8547 -77.1594 66° East 461 531 31,000  Level Boston Center
Wed 11:22:50 AM 42.9072 -76.9989 66° East 461 531 31,000  Level Boston Center
Wed 11:23:51 AM 42.9597 -76.8356 66° East 466 536 31,000  Level Boston Center
Wed 11:24:51 AM 43.0139 -76.6689 66° East 466 536 31,000  Level Boston Center
Wed 11:25:52 AM 43.0678 -76.5019 66° East 471 542 31,000  Level Boston Center
Wed 11:26:49 AM 43.1217 -76.3347 66° East 471 542 31,000  Level Boston Center
Wed 11:27:50 AM 43.1792 -76.1733 64° Northeast 471 542 31,000  Level Boston Center
Wed 11:29:02 AM 43.2650 -76.0358 49° Northeast 466 536 31,000  Level Boston Center
Wed 11:30:03 AM 43.3597 -75.8672 52° Northeast 466 536 31,000  Level Boston Center
Wed 11:31:04 AM 43.4292 -75.7081 59° Northeast 466 536 31,000  Level Boston Center
Wed 11:32:02 AM 43.4981 -75.5514 59° Northeast 472 543 31,000  Level Boston Center
Wed 11:33:02 AM 43.5647 -75.3917 60° Northeast 477 549 31,000 -50 Level Boston Center
Wed 11:34:03 AM 43.6203 -75.2594 60° Northeast 477 549 30,900 -1,289 Descending Boston Center
Wed 11:35:03 AM 43.6933 -75.0847 60° Northeast 477 549 28,400 -2,521 Descending Boston Center
Wed 11:36:02 AM 43.7592 -74.9267 60° Northeast 477 549 25,900 -2,500 Descending Boston Center
Wed 11:37:03 AM 43.8186 -74.7767 61° Northeast 458 527 23,400 -2,479 Descending Boston Center
Wed 11:38:03 AM 43.8778 -74.6319 60° Northeast 443 510 20,900 -2,542 Descending Boston Center
Wed 11:39:01 AM 43.9367 -74.4928 60° Northeast 426 490 18,400 -1,462 Descending Boston Center
Wed 11:40:02 AM 43.9933 -74.3506 61° Northeast 419 482 18,000 -496 Descending Boston Center
Wed 11:41:02 AM 44.0497 -74.2136 60° Northeast 414 476 17,400 -1,041 Descending Boston Center
Wed 11:42:03 AM 44.1036 -74.0881 59° Northeast 402 463 15,900 -1,537 Descending Boston Center
Wed 11:43:03 AM 44.1533 -73.9622 61° Northeast 380 437 14,300 -1,385 Descending Boston Center
Wed 11:44:13 AM 44.2028 -73.8358 61° Northeast 370 426 12,900 -1,477 Descending Boston Center
Wed 11:45:13 AM 44.2464 -73.6775 69° East 360 414 11,100 -1,190 Descending Boston Center
Wed 11:46:14 AM 44.2722 -73.5794 70° East 349 402 10,500 -1,091 Descending Boston Center
Wed 11:47:14 AM 44.2964 -73.4467 76° East 314 361 8,900 -1,785 Descending Boston Center
Wed 11:48:15 AM 44.2850 -73.3419 99° East 286 329 6,900 -1,587 Descending Boston Center
Wed 11:49:15 AM 44.2917 -73.2581 84° East 254 292 5,700 -1,100 Descending Boston Center
Wed 11:50:15 AM 44.3233 -73.2003 53° Northeast 199 229 4,700 -1,008 Descending Boston Center
Wed 11:51:14 AM 44.3489 -73.1428 58° Northeast 181 208 3,700 -1,017 Descending Boston Center

Login

Don't have an account? Register now (free) for customized features, flight alerts, and more!